createdAt,value
2023-03-11T00:02:36.791Z,97774.66
2023-03-11T00:05:41.007Z,97763.09
2023-03-11T00:08:43.366Z,97767.13
2023-03-11T00:11:45.884Z,97752.34
2023-03-11T00:14:48.237Z,97756.94
2023-03-11T00:17:51.244Z,97756.41
2023-03-11T00:20:54.924Z,97749.94
2023-03-11T00:24:01.115Z,97751.88
2023-03-11T00:27:04.169Z,97743.50
2023-03-11T00:30:07.764Z,97742.66
2023-03-11T00:33:13.101Z,97740.81
2023-03-11T00:36:25.159Z,97717.69
2023-03-11T00:39:27.500Z,97698.44
2023-03-11T00:42:29.993Z,97716.63
2023-03-11T00:45:32.699Z,97694.66
2023-03-11T00:48:35.032Z,97701.56
2023-03-11T00:51:37.410Z,97705.59
2023-03-11T00:54:40.085Z,97708.84
2023-03-11T00:57:43.581Z,97697.88
2023-03-11T01:00:46.679Z,97702.97
2023-03-11T01:03:49.397Z,97686.91
2023-03-11T01:06:52.248Z,97691.28
2023-03-11T01:09:54.750Z,97710.53
2023-03-11T01:12:57.156Z,97699.53
2023-03-11T01:15:59.822Z,97694.16
2023-03-11T01:19:02.386Z,97683.44
2023-03-11T01:22:04.929Z,97643.38
2023-03-11T01:25:07.511Z,97660.50
2023-03-11T01:28:09.982Z,97691.75
2023-03-11T01:31:12.591Z,97693.72
2023-03-11T01:34:15.362Z,97679.72
2023-03-11T01:37:17.760Z,97685.69
2023-03-11T01:40:27.116Z,97674.41
2023-03-11T01:43:39.881Z,97684.63
2023-03-11T01:46:54.932Z,97679.03
2023-03-11T01:50:01.613Z,97691.31
2023-03-11T01:53:06.001Z,97678.28
2023-03-11T01:56:09.122Z,97687.13
2023-03-11T01:59:13.789Z,97694.59
2023-03-11T02:02:37.559Z,97694.88
2023-03-11T02:05:41.263Z,97693.47
2023-03-11T02:08:45.524Z,97685.16
2023-03-11T02:11:49.095Z,97696.41
2023-03-11T02:14:54.740Z,97700.16
2023-03-11T02:17:57.293Z,97694.28
2023-03-11T02:21:30.346Z,97662.75
2023-03-11T02:24:38.219Z,97707.69
2023-03-11T02:27:42.220Z,97702.38
2023-03-11T02:30:46.486Z,97697.56
2023-03-11T02:33:50.231Z,97695.66
2023-03-11T02:36:52.744Z,97706.13
2023-03-11T02:39:56.578Z,97705.63
2023-03-11T02:43:01.221Z,97704.78
2023-03-11T02:46:05.488Z,97719.00
2023-03-11T02:49:08.316Z,97710.97
2023-03-11T02:52:10.698Z,97717.13
2023-03-11T02:55:13.178Z,97717.66
2023-03-11T02:58:15.852Z,97721.69
2023-03-11T03:01:18.483Z,97718.09
2023-03-11T03:04:22.195Z,97703.69
2023-03-11T03:07:24.604Z,97733.91
2023-03-11T03:10:27.363Z,97752.69
2023-03-11T03:13:31.087Z,97745.19
2023-03-11T03:16:33.927Z,97737.16
2023-03-11T03:19:36.386Z,97727.50
2023-03-11T03:22:40.066Z,97752.69
2023-03-11T03:25:44.708Z,97746.03
2023-03-11T03:28:47.392Z,97763.19
2023-03-11T03:31:50.183Z,97755.41
2023-03-11T03:34:58.349Z,97755.09
2023-03-11T03:38:10.289Z,97770.94
2023-03-11T03:41:15.959Z,97757.00
2023-03-11T03:44:18.682Z,97759.44
2023-03-11T03:47:22.703Z,97772.28
2023-03-11T03:50:25.395Z,97765.84
2023-03-11T03:53:30.472Z,97779.75
2023-03-11T03:56:33.484Z,97777.84
2023-03-11T03:59:36.982Z,97775.19
2023-03-11T04:02:40.173Z,97782.41
2023-03-11T04:05:46.710Z,97788.56
2023-03-11T04:08:51.997Z,97777.59
2023-03-11T04:11:55.823Z,97760.50
2023-03-11T04:14:58.403Z,97787.78
2023-03-11T04:18:01.513Z,97789.41
2023-03-11T04:21:07.540Z,97793.69
2023-03-11T04:24:10.295Z,97792.66
2023-03-11T04:27:14.268Z,97787.28
2023-03-11T04:30:17.203Z,97793.69
2023-03-11T04:33:21.951Z,97794.50
2023-03-11T04:36:24.961Z,97797.44
2023-03-11T04:39:28.584Z,97804.69
2023-03-11T04:42:31.378Z,97810.53
2023-03-11T04:45:33.979Z,97816.44
2023-03-11T04:48:38.495Z,97817.25
2023-03-11T04:51:42.788Z,97824.78
2023-03-11T04:54:46.339Z,97827.16
2023-03-11T04:57:48.654Z,97830.94
2023-03-11T05:00:53.266Z,97831.72
2023-03-11T05:03:56.533Z,97841.09
2023-03-11T05:06:58.972Z,97835.72
2023-03-11T05:10:01.849Z,97842.69
2023-03-11T05:13:05.346Z,97839.47
2023-03-11T05:16:11.505Z,97835.16
2023-03-11T05:19:46.859Z,97852.06
2023-03-11T05:22:56.657Z,97861.69
2023-03-11T05:25:59.227Z,97859.03
2023-03-11T05:29:02.646Z,97869.44
2023-03-11T05:32:05.625Z,97851.78
2023-03-11T05:35:08.720Z,97868.66
2023-03-11T05:38:11.356Z,97868.91
2023-03-11T05:41:14.010Z,97872.16
2023-03-11T05:44:18.735Z,97877.50
2023-03-11T05:47:22.934Z,97889.28
2023-03-11T05:50:26.185Z,97890.88
2023-03-11T05:53:29.248Z,97892.78
2023-03-11T05:56:31.538Z,97907.19
2023-03-11T05:59:35.644Z,97894.66
2023-03-11T06:02:41.396Z,97913.66
2023-03-11T06:05:48.813Z,97919.84
2023-03-11T06:08:51.290Z,97923.59
2023-03-11T06:11:55.684Z,97938.06
2023-03-11T06:15:01.519Z,97938.09
2023-03-11T06:18:05.288Z,97942.59
2023-03-11T06:21:08.724Z,97952.50
2023-03-11T06:24:11.398Z,97949.31
2023-03-11T06:27:14.038Z,97960.31
2023-03-11T06:30:17.512Z,97963.75
2023-03-11T06:33:28.489Z,97965.94
2023-03-11T06:36:30.990Z,97982.28
2023-03-11T06:39:34.549Z,97983.06
2023-03-11T06:42:40.067Z,97929.69
2023-03-11T06:45:47.159Z,98007.75
2023-03-11T06:48:53.552Z,98006.69
2023-03-11T06:51:57.960Z,98025.66
2023-03-11T06:55:00.479Z,98032.66
2023-03-11T06:58:04.652Z,98035.00
2023-03-11T07:01:09.449Z,98046.28
2023-03-11T07:04:14.232Z,98057.53
2023-03-11T07:07:17.972Z,98057.22
2023-03-11T07:10:20.489Z,98060.69
2023-03-11T07:13:23.756Z,98062.53
2023-03-11T07:16:28.847Z,98088.09
2023-03-11T07:19:37.868Z,98075.75
2023-03-11T07:22:40.453Z,98097.19
2023-03-11T07:25:47.568Z,98100.94
2023-03-11T07:28:49.940Z,98100.38
2023-03-11T07:31:52.398Z,98104.44
2023-03-11T07:34:55.127Z,98120.75
2023-03-11T07:37:57.544Z,98131.47
2023-03-11T07:41:00.184Z,98128.22
2023-03-11T07:44:03.739Z,98137.56
2023-03-11T07:47:06.774Z,98143.91
2023-03-11T07:50:11.575Z,98158.66
2023-03-11T07:53:13.817Z,98164.44
2023-03-11T07:56:17.128Z,98182.84
2023-03-11T07:59:19.476Z,98175.72
2023-03-11T08:02:22.017Z,98195.16
2023-03-11T08:05:24.414Z,98200.44
2023-03-11T08:08:26.926Z,98206.19
2023-03-11T08:11:31.033Z,98218.16
2023-03-11T08:14:33.530Z,98221.56
2023-03-11T08:17:35.938Z,98230.09
2023-03-11T08:20:39.043Z,98248.88
2023-03-11T08:23:42.044Z,98256.38
2023-03-11T08:26:44.988Z,98253.97
2023-03-11T08:29:47.448Z,98263.91
2023-03-11T08:32:50.492Z,98260.66
2023-03-11T08:35:53.084Z,98261.00
2023-03-11T08:38:56.079Z,98279.56
2023-03-11T08:41:59.954Z,98275.03
2023-03-11T08:45:02.342Z,98291.75
2023-03-11T08:48:04.900Z,98294.38
2023-03-11T08:51:12.718Z,98306.03
2023-03-11T08:54:15.270Z,98302.13
2023-03-11T08:57:17.779Z,98323.97
2023-03-11T09:00:20.734Z,98325.84
2023-03-11T09:03:23.072Z,98326.50
2023-03-11T09:06:25.632Z,98333.44
2023-03-11T09:09:28.669Z,98339.50
2023-03-11T09:12:31.352Z,98348.41
2023-03-11T09:15:35.043Z,98350.44
2023-03-11T09:18:37.431Z,98371.50
2023-03-11T09:21:40.087Z,98380.50
2023-03-11T09:24:42.510Z,98394.59
2023-03-11T09:27:44.888Z,98394.63
2023-03-11T09:30:47.359Z,98407.34
2023-03-11T09:33:50.230Z,98418.94
2023-03-11T09:36:52.598Z,98426.50
2023-03-11T09:39:55.174Z,98432.31
2023-03-11T09:43:05.694Z,98440.53
2023-03-11T09:46:33.105Z,98441.97
2023-03-11T09:49:53.726Z,98459.84
2023-03-11T09:53:04.122Z,98468.44
2023-03-11T09:56:08.746Z,98474.03
2023-03-11T09:59:30.990Z,98486.22
2023-03-11T10:02:36.518Z,98501.03
2023-03-11T10:05:39.251Z,98502.53
2023-03-11T10:08:53.740Z,98505.16
2023-03-11T10:12:08.275Z,98507.91
2023-03-11T10:15:24.458Z,98520.47
2023-03-11T10:18:41.971Z,98531.38
2023-03-11T10:22:01.993Z,98521.63
2023-03-11T10:25:14.698Z,98536.75
2023-03-11T10:28:21.685Z,98558.41
2023-03-11T10:31:30.832Z,98548.69
2023-03-11T10:35:17.586Z,98568.31
2023-03-11T10:38:30.330Z,98566.19
2023-03-11T10:41:52.602Z,98566.38
2023-03-11T10:44:55.426Z,98568.28
2023-03-11T10:47:58.314Z,98577.78
2023-03-11T10:51:11.415Z,98589.91
2023-03-11T10:54:36.393Z,98585.25
2023-03-11T10:57:40.067Z,98585.03
2023-03-11T11:00:42.981Z,98589.50
2023-03-11T11:03:50.635Z,98606.94
2023-03-11T11:06:53.551Z,98621.50
2023-03-11T11:10:23.605Z,98624.88
2023-03-11T11:13:30.353Z,98627.75
2023-03-11T11:16:34.402Z,98614.06
2023-03-11T11:19:38.009Z,98636.22
2023-03-11T11:22:50.721Z,98641.16
2023-03-11T11:26:05.140Z,98642.22
2023-03-11T11:29:10.331Z,98646.28
2023-03-11T11:32:15.637Z,98655.34
2023-03-11T11:35:20.073Z,98654.72
2023-03-11T11:38:24.640Z,98655.59
2023-03-11T11:41:27.925Z,98666.44
2023-03-11T11:44:35.021Z,98660.78
2023-03-11T11:47:40.805Z,98669.63
2023-03-11T11:50:52.002Z,98662.88
2023-03-11T11:54:19.634Z,98677.97
2023-03-11T11:57:23.356Z,98671.41
2023-03-11T12:01:10.833Z,98687.50
2023-03-11T12:04:19.447Z,98696.75
2023-03-11T12:07:49.060Z,98702.56
2023-03-11T12:11:02.202Z,98705.66
2023-03-11T12:14:16.274Z,98720.50
2023-03-11T12:17:20.807Z,98720.13
2023-03-11T12:20:32.907Z,98716.53
2023-03-11T12:23:50.374Z,98717.50
2023-03-11T12:26:53.495Z,98726.63
2023-03-11T12:30:01.062Z,98726.63
2023-03-11T12:33:10.024Z,98724.34
2023-03-11T12:36:25.838Z,98727.28
2023-03-11T12:39:31.222Z,98746.31
2023-03-11T12:42:41.152Z,98748.13
2023-03-11T12:45:50.787Z,98762.84
2023-03-11T12:49:12.532Z,98764.91
2023-03-11T12:52:14.831Z,98773.59
2023-03-11T12:55:17.367Z,98783.75
2023-03-11T12:58:35.510Z,98787.88
2023-03-11T13:01:48.744Z,98803.91
2023-03-11T13:05:07.792Z,98804.22
2023-03-11T13:08:24.070Z,98820.91
2023-03-11T13:11:32.263Z,98814.47
2023-03-11T13:14:35.051Z,98812.19
2023-03-11T13:17:37.622Z,98833.72
2023-03-11T13:20:43.190Z,98838.47
2023-03-11T13:23:45.791Z,98848.53
2023-03-11T13:26:54.020Z,98855.09
2023-03-11T13:30:01.432Z,98865.84
2023-03-11T13:33:59.577Z,98871.38
2023-03-11T13:37:17.776Z,98872.97
2023-03-11T13:40:39.881Z,98887.44
2023-03-11T13:43:49.918Z,98890.88
2023-03-11T13:47:16.369Z,98872.50
2023-03-11T13:50:27.161Z,98896.63
2023-03-11T13:53:40.894Z,98908.44
2023-03-11T13:57:03.319Z,98912.22
2023-03-11T14:00:18.127Z,98920.50
2023-03-11T14:03:23.149Z,98920.16
2023-03-11T14:06:25.606Z,98923.69
2023-03-11T14:09:29.724Z,98937.16
2023-03-11T14:12:34.919Z,98889.25
2023-03-11T14:15:47.807Z,98945.53
2023-03-11T14:19:12.348Z,98951.44
2023-03-11T14:22:16.121Z,98957.56
2023-03-11T14:25:31.253Z,98963.84
2023-03-11T14:28:43.561Z,98971.56
2023-03-11T14:31:47.831Z,98981.03
2023-03-11T14:34:50.175Z,98986.41
2023-03-11T14:37:52.830Z,98989.16
2023-03-11T14:41:03.581Z,98996.59
2023-03-11T14:44:06.772Z,98980.13
2023-03-11T14:47:15.602Z,99003.22
2023-03-11T14:50:24.415Z,99007.66
2023-03-11T14:53:32.028Z,99020.94
2023-03-11T14:56:38.139Z,99028.50
2023-03-11T14:59:40.961Z,99030.28
2023-03-11T15:02:55.902Z,99032.00
2023-03-11T15:06:10.367Z,99048.72
2023-03-11T15:09:30.862Z,99007.38
2023-03-11T15:12:35.726Z,99063.63
2023-03-11T15:15:38.218Z,99041.94
2023-03-11T15:18:42.777Z,99066.84
2023-03-11T15:21:49.368Z,99065.03
2023-03-11T15:24:54.520Z,99066.44
2023-03-11T15:27:57.359Z,99073.25
2023-03-11T15:31:31.458Z,99074.28
2023-03-11T15:34:35.414Z,99086.16
2023-03-11T15:37:37.965Z,99082.56
2023-03-11T15:40:45.572Z,99078.75
2023-03-11T15:43:48.952Z,99094.56
2023-03-11T15:46:51.379Z,99085.25
2023-03-11T15:49:53.833Z,99094.56
2023-03-11T15:52:57.723Z,99107.03
2023-03-11T15:56:07.277Z,99111.66
2023-03-11T15:59:15.600Z,99110.69
2023-03-11T16:02:30.626Z,99122.47
2023-03-11T16:05:32.974Z,99132.94
2023-03-11T16:08:35.769Z,99138.50
2023-03-11T16:11:38.719Z,99144.25
2023-03-11T16:14:41.131Z,99154.72
2023-03-11T16:17:49.835Z,99157.31
2023-03-11T16:20:54.055Z,99165.00
2023-03-11T16:23:56.380Z,99169.00
2023-03-11T16:26:59.095Z,99181.81
2023-03-11T16:30:01.657Z,99186.69
2023-03-11T16:33:05.168Z,99195.66
2023-03-11T16:36:08.096Z,99195.50
2023-03-11T16:39:10.480Z,99186.28
2023-03-11T16:42:12.802Z,99207.47
2023-03-11T16:45:16.640Z,99209.19
2023-03-11T16:48:18.980Z,99222.31
2023-03-11T16:51:21.349Z,99225.06
2023-03-11T16:54:23.597Z,99228.50
2023-03-11T16:57:26.056Z,99238.31
2023-03-11T17:00:28.378Z,99243.59
2023-03-11T17:03:41.026Z,99242.47
2023-03-11T17:06:44.613Z,99239.81
2023-03-11T17:09:46.903Z,99244.59
2023-03-11T17:12:49.213Z,99248.44
2023-03-11T17:16:01.446Z,99255.34
2023-03-11T17:19:04.120Z,99259.06
2023-03-11T17:22:06.519Z,99260.09
2023-03-11T17:25:09.099Z,99257.56
2023-03-11T17:28:11.630Z,99277.19
2023-03-11T17:31:16.377Z,99276.88
2023-03-11T17:34:19.214Z,99282.06
2023-03-11T17:37:22.076Z,99277.78
2023-03-11T17:40:24.660Z,99282.78
2023-03-11T17:43:27.142Z,99284.72
2023-03-11T17:46:29.750Z,99293.31
2023-03-11T17:49:32.382Z,99275.88
2023-03-11T17:52:34.978Z,99296.31
2023-03-11T17:55:40.860Z,99301.06
2023-03-11T17:58:43.672Z,99305.00
2023-03-11T18:01:46.136Z,99309.88
2023-03-11T18:04:54.699Z,99305.22
2023-03-11T18:07:57.132Z,99317.97
2023-03-11T18:11:03.203Z,99319.78
2023-03-11T18:14:07.288Z,99313.97
2023-03-11T18:17:09.751Z,99332.03
2023-03-11T18:20:14.004Z,99330.84
2023-03-11T18:23:16.725Z,99336.94
2023-03-11T18:26:20.393Z,99344.63
2023-03-11T18:29:24.346Z,99343.75
2023-03-11T18:32:27.046Z,99339.44
2023-03-11T18:35:29.893Z,99345.38
2023-03-11T18:38:32.310Z,99353.41
2023-03-11T18:41:36.127Z,99349.16
2023-03-11T18:44:38.530Z,99356.38
2023-03-11T18:47:40.911Z,99346.25
2023-03-11T18:50:43.290Z,99361.50
2023-03-11T18:53:45.713Z,99371.25
2023-03-11T18:56:48.185Z,99356.84
2023-03-11T18:59:52.098Z,99377.00
2023-03-11T19:02:54.681Z,99381.72
2023-03-11T19:05:56.973Z,99379.94
2023-03-11T19:08:59.479Z,99384.41
2023-03-11T19:12:01.983Z,99399.00
2023-03-11T19:15:04.780Z,99403.81
2023-03-11T19:18:07.910Z,99411.81
2023-03-11T19:21:12.101Z,99411.28
2023-03-11T19:24:14.838Z,99409.59
2023-03-11T19:27:17.352Z,99404.00
2023-03-11T19:30:21.251Z,99397.47
2023-03-11T19:33:23.871Z,99400.63
2023-03-11T19:36:27.702Z,99412.25
2023-03-11T19:39:30.285Z,99411.94
2023-03-11T19:42:35.670Z,99415.28
2023-03-11T19:45:39.852Z,99424.53
2023-03-11T19:48:42.209Z,99412.78
2023-03-11T19:51:50.236Z,99428.63
2023-03-11T19:54:53.171Z,99431.50
2023-03-11T19:57:55.555Z,99434.41
2023-03-11T20:00:58.851Z,99433.44
2023-03-11T20:04:01.258Z,99426.50
2023-03-11T20:07:05.283Z,99424.44
2023-03-11T20:10:08.022Z,99434.13
2023-03-11T20:13:10.454Z,99441.22
2023-03-11T20:16:18.381Z,99435.44
2023-03-11T20:19:21.223Z,99439.56
2023-03-11T20:22:23.599Z,99434.66
2023-03-11T20:25:26.524Z,99438.72
2023-03-11T20:28:28.986Z,99432.59
2023-03-11T20:31:32.075Z,99428.91
2023-03-11T20:34:34.911Z,99439.75
2023-03-11T20:37:37.329Z,99440.56
2023-03-11T20:40:39.719Z,99445.91
2023-03-11T20:43:42.252Z,99437.72
2023-03-11T20:46:46.447Z,99443.84
2023-03-11T20:49:48.897Z,99426.66
2023-03-11T20:52:51.836Z,99442.25
2023-03-11T20:55:54.769Z,99408.78
2023-03-11T20:58:59.578Z,99450.38
2023-03-11T21:02:02.372Z,99447.75
2023-03-11T21:05:06.161Z,99443.81
2023-03-11T21:08:08.624Z,99447.38
2023-03-11T21:11:11.067Z,99429.50
2023-03-11T21:14:18.589Z,99410.84
2023-03-11T21:17:21.188Z,99428.44
2023-03-11T21:20:24.404Z,99424.13
2023-03-11T21:23:27.104Z,99431.56
2023-03-11T21:26:30.197Z,99430.94
2023-03-11T21:29:32.629Z,99434.50
2023-03-11T21:32:35.122Z,99431.22
2023-03-11T21:35:37.558Z,99431.75
2023-03-11T21:38:40.865Z,99437.84
2023-03-11T21:41:43.571Z,99432.91
2023-03-11T21:44:45.987Z,99428.44
2023-03-11T21:47:48.389Z,99423.13
2023-03-11T21:50:52.575Z,99334.47
2023-03-11T21:53:54.985Z,99425.75
2023-03-11T21:56:57.496Z,99424.47
2023-03-11T21:59:59.854Z,99422.97
2023-03-11T22:03:02.291Z,99424.81
2023-03-11T22:06:08.112Z,99418.22
2023-03-11T22:09:10.598Z,99424.13
2023-03-11T22:12:12.987Z,99411.91
2023-03-11T22:15:15.624Z,99412.06
2023-03-11T22:18:18.161Z,99419.00
2023-03-11T22:21:21.190Z,99411.69
2023-03-11T22:24:23.578Z,99403.72
2023-03-11T22:27:25.906Z,99410.66
2023-03-11T22:30:28.402Z,99398.81
2023-03-11T22:33:30.830Z,99394.13
2023-03-11T22:36:33.159Z,99393.03
2023-03-11T22:39:35.657Z,99391.22
2023-03-11T22:42:38.335Z,99383.31
2023-03-11T22:45:40.779Z,99378.94
2023-03-11T22:48:43.343Z,99379.38
2023-03-11T22:51:45.776Z,99385.31
2023-03-11T22:54:48.374Z,99373.81
2023-03-11T22:57:50.810Z,99377.28
2023-03-11T23:00:53.283Z,99378.34
2023-03-11T23:03:55.848Z,99382.06
2023-03-11T23:06:58.287Z,99365.75
2023-03-11T23:10:00.906Z,99370.28
2023-03-11T23:13:03.290Z,99360.03
2023-03-11T23:16:12.689Z,99358.59
2023-03-11T23:19:15.839Z,99350.91
2023-03-11T23:22:18.332Z,99349.69
2023-03-11T23:25:20.720Z,99346.66
2023-03-11T23:28:23.079Z,99365.25
2023-03-11T23:31:26.558Z,99349.38
2023-03-11T23:34:29.040Z,99357.03
2023-03-11T23:37:31.422Z,99334.38
2023-03-11T23:40:34.005Z,99327.47
2023-03-11T23:43:36.536Z,99347.09
2023-03-11T23:46:39.484Z,99343.81
2023-03-11T23:49:42.431Z,99349.06
2023-03-11T23:52:44.863Z,99361.44
2023-03-11T23:55:47.134Z,99359.50
2023-03-11T23:58:49.443Z,99332.75
